Terminal Aerodrome Forecast
Issued by NWS

Home | Current Version | Previous Version | Text Only | Print | Product List | Glossary On
Versions: 1 2 3 4 5 6 7 8 9 10 11 12 13 14 15 16 17 18 19
371
FTUS43 KLSX 112330
TAFCPS
TAF
KCPS 112330Z 1200/1224 02005KT P6SM OVC080
     FM120600 11004KT 3SM -SN OVC040
     FM120800 VRB03KT 2SM -SN OVC025
     FM121200 00000KT P6SM OVC015
     FM121600 02006KT P6SM OVC025
     FM122000 32012G20KT P6SM BKN040=

USA.gov is the U.S. government's official web portal to all federal, state and local government web resources and services.